createdAt,value
2018-12-09T00:00:07.481Z,40336.70
2018-12-09T00:02:12.438Z,40318.34
2018-12-09T00:04:17.116Z,40344.42
2018-12-09T00:06:23.057Z,40349.25
2018-12-09T00:08:28.113Z,40352.15
2018-12-09T00:10:33.167Z,40359.88
2018-12-09T00:12:37.966Z,40338.62
2018-12-09T00:14:42.789Z,40357.95
2018-12-09T00:16:47.651Z,40335.73
2018-12-09T00:18:52.731Z,40345.39
2018-12-09T00:20:58.440Z,40318.34
2018-12-09T00:23:03.483Z,40288.39
2018-12-09T00:25:08.422Z,40300.95
2018-12-09T00:27:14.119Z,40294.19
2018-12-09T00:29:19.067Z,40289.36
2018-12-09T00:31:24.883Z,40283.56
2018-12-09T00:33:30.651Z,40273.90
2018-12-09T00:35:36.547Z,40283.56
2018-12-09T00:37:42.406Z,40278.73
2018-12-09T00:39:47.313Z,40265.21
2018-12-09T00:41:52.237Z,40288.39
2018-12-09T00:43:57.204Z,40277.77
2018-12-09T00:46:02.883Z,40278.73
2018-12-09T00:48:07.593Z,40299.98
2018-12-09T00:50:12.721Z,40271.97
2018-12-09T00:52:19.214Z,40285.49
2018-12-09T00:54:25.412Z,40274.87
2018-12-09T00:56:30.205Z,40271.97
2018-12-09T00:58:35.036Z,40300.95
2018-12-09T01:00:40.637Z,40277.77
2018-12-09T01:02:45.333Z,40276.80
2018-12-09T01:04:51.333Z,40282.60
2018-12-09T01:06:56.197Z,40287.43
2018-12-09T01:09:02.174Z,40301.92
2018-12-09T01:11:08.044Z,40276.80
2018-12-09T01:13:13.306Z,40304.81
2018-12-09T01:17:36.811Z,40271.00
2018-12-09T01:19:42.406Z,40293.22
2018-12-09T01:21:47.913Z,40290.32
2018-12-09T01:23:52.956Z,40273.90
2018-12-09T01:25:57.867Z,40284.53
2018-12-09T01:28:02.669Z,40242.02
2018-12-09T01:30:07.807Z,40229.46
2018-12-09T01:32:12.865Z,40229.46
2018-12-09T01:34:21.195Z,40238.16
2018-12-09T01:36:26.026Z,40253.61
2018-12-09T01:38:34.695Z,40232.36
2018-12-09T01:40:45.602Z,40224.63
2018-12-09T01:42:50.435Z,40239.12
2018-12-09T01:44:55.408Z,40230.43
2018-12-09T01:47:00.436Z,40209.18
2018-12-09T01:49:05.431Z,40226.57
2018-12-09T01:51:10.294Z,40226.57
2018-12-09T01:53:35.506Z,40206.28
2018-12-09T01:55:41.199Z,40209.18
2018-12-09T01:57:46.078Z,40144.45
2018-12-09T01:59:52.057Z,40200.48
2018-12-09T02:01:56.808Z,40174.40
2018-12-09T02:04:01.828Z,40191.79
2018-12-09T02:06:06.948Z,40191.79
2018-12-09T02:08:11.708Z,40161.84
2018-12-09T02:10:16.439Z,40181.16
2018-12-09T02:12:21.593Z,40215.94
2018-12-09T02:14:26.492Z,40187.93
2018-12-09T02:16:31.332Z,40193.72
2018-12-09T02:18:36.224Z,40207.25
2018-12-09T02:20:41.188Z,40187.93
2018-12-09T02:22:47.017Z,40217.87
2018-12-09T02:24:51.775Z,40158.95
2018-12-09T02:26:57.030Z,40199.52
2018-12-09T02:29:01.911Z,40172.47
2018-12-09T02:31:07.448Z,40170.54
2018-12-09T02:33:12.332Z,40181.16
2018-12-09T02:35:17.344Z,40131.89
2018-12-09T02:37:22.240Z,40159.91
2018-12-09T02:39:27.088Z,40131.89
2018-12-09T02:41:31.900Z,40101.95
2018-12-09T02:43:36.753Z,40100.98
2018-12-09T02:45:41.719Z,40066.21
2018-12-09T02:47:46.449Z,40052.69
2018-12-09T02:49:51.200Z,40027.57
2018-12-09T02:51:56.102Z,39860.46
2018-12-09T02:54:01.647Z,40012.12
2018-12-09T02:56:06.311Z,40064.28
2018-12-09T02:58:11.142Z,40088.43
2018-12-09T03:00:15.990Z,40125.14
2018-12-09T03:02:21.230Z,40205.31
2018-12-09T03:04:26.138Z,40125.14
2018-12-09T03:06:30.996Z,40201.45
2018-12-09T03:08:35.847Z,40176.33
2018-12-09T03:10:41.241Z,40188.89
2018-12-09T03:12:47.058Z,40230.43
2018-12-09T03:14:52.637Z,40225.60
2018-12-09T03:16:58.325Z,40288.39
2018-12-09T03:19:03.367Z,40241.06
2018-12-09T03:21:08.822Z,40269.07
2018-12-09T03:23:13.567Z,40263.27
2018-12-09T03:25:18.565Z,40290.32
2018-12-09T03:27:23.385Z,40338.62
2018-12-09T03:29:28.642Z,40316.41
2018-12-09T03:31:33.420Z,40354.08
2018-12-09T03:33:38.508Z,40314.48
2018-12-09T03:35:43.244Z,40349.25
2018-12-09T03:37:49.000Z,40378.23
2018-12-09T03:39:54.481Z,40332.83
2018-12-09T03:41:59.665Z,40310.61
2018-12-09T03:44:04.717Z,40351.18
2018-12-09T03:46:09.694Z,40328.00
2018-12-09T03:48:15.050Z,40348.29
2018-12-09T03:50:19.896Z,40309.64
2018-12-09T03:52:24.783Z,40349.25
2018-12-09T03:54:29.564Z,40334.76
2018-12-09T03:56:34.541Z,40338.62
2018-12-09T03:58:39.459Z,40359.88
2018-12-09T04:00:45.313Z,40385.00
2018-12-09T04:02:50.116Z,40377.27
2018-12-09T04:04:54.975Z,40355.05
2018-12-09T04:06:59.817Z,40427.50
2018-12-09T04:09:05.725Z,40391.76
2018-12-09T04:11:10.429Z,40374.37
2018-12-09T04:13:16.395Z,40413.01
2018-12-09T04:15:21.270Z,40408.18
2018-12-09T04:17:26.079Z,40411.08
2018-12-09T04:19:32.084Z,40441.03
2018-12-09T04:21:36.849Z,40421.71
2018-12-09T04:23:42.584Z,40394.66
2018-12-09T04:25:47.931Z,40427.50
2018-12-09T04:27:52.755Z,40401.42
2018-12-09T04:29:57.492Z,40413.01
2018-12-09T04:32:02.568Z,40386.93
2018-12-09T04:34:07.548Z,40405.29
2018-12-09T04:36:12.297Z,40411.08
2018-12-09T04:38:17.068Z,40396.59
2018-12-09T04:40:22.624Z,40413.98
2018-12-09T04:42:27.445Z,40401.42
2018-12-09T04:44:32.152Z,40481.61
2018-12-09T04:46:36.947Z,40429.44
2018-12-09T04:48:41.715Z,40482.57
2018-12-09T04:50:46.532Z,40478.71
2018-12-09T04:52:51.652Z,40505.76
2018-12-09T04:54:56.701Z,40435.23
2018-12-09T04:57:01.572Z,40543.43
2018-12-09T04:59:20.423Z,40546.33
2018-12-09T05:01:27.022Z,40531.84
2018-12-09T05:03:32.664Z,40542.47
2018-12-09T05:05:37.438Z,40552.13
2018-12-09T05:07:43.178Z,40532.81
2018-12-09T05:09:49.133Z,40526.05
2018-12-09T05:11:53.923Z,40557.93
2018-12-09T05:13:58.876Z,40535.71
2018-12-09T05:16:03.629Z,40556.00
2018-12-09T05:18:08.936Z,40496.10
2018-12-09T05:20:13.788Z,40559.86
2018-12-09T05:22:18.565Z,40567.59
2018-12-09T05:24:24.443Z,40560.82
2018-12-09T05:26:29.148Z,40556.00
2018-12-09T05:28:33.999Z,40560.82
2018-12-09T05:30:38.751Z,40591.74
2018-12-09T05:32:44.194Z,40606.23
2018-12-09T05:34:48.916Z,40592.71
2018-12-09T05:36:53.702Z,40580.15
2018-12-09T05:38:58.574Z,40572.42
2018-12-09T05:41:03.539Z,40563.72
2018-12-09T05:43:08.325Z,40575.32
2018-12-09T05:45:13.281Z,40571.45
2018-12-09T05:50:03.315Z,40577.25
2018-12-09T05:52:09.092Z,40547.30
2018-12-09T05:54:14.688Z,40571.45
2018-12-09T05:56:21.111Z,40589.81
2018-12-09T05:58:29.791Z,40531.84
2018-12-09T06:00:34.640Z,40578.21
2018-12-09T06:02:55.900Z,40549.23
2018-12-09T06:05:00.835Z,40487.40
2018-12-09T06:07:05.656Z,40524.11
2018-12-09T06:09:10.787Z,40553.10
2018-12-09T06:11:15.579Z,40544.40
2018-12-09T06:13:20.996Z,40527.98
2018-12-09T06:15:25.868Z,40525.08
2018-12-09T06:17:31.108Z,40559.86
2018-12-09T06:19:36.030Z,40526.05
2018-12-09T06:21:40.851Z,40546.33
2018-12-09T06:23:45.603Z,40537.64
2018-12-09T06:25:50.940Z,40546.33
2018-12-09T06:27:55.805Z,40551.16
2018-12-09T06:30:00.697Z,40530.87
2018-12-09T06:32:05.685Z,40523.15
2018-12-09T06:34:10.492Z,40531.84
2018-12-09T06:36:15.309Z,40520.25
2018-12-09T06:38:20.021Z,40528.95
2018-12-09T06:40:25.761Z,40501.89
2018-12-09T06:42:30.608Z,40516.38
2018-12-09T06:44:36.226Z,40538.61
2018-12-09T06:46:41.317Z,40540.54
2018-12-09T06:48:46.049Z,40528.95
2018-12-09T06:50:51.050Z,40486.44
2018-12-09T06:52:56.721Z,40505.76
2018-12-09T06:55:01.693Z,40509.62
2018-12-09T06:57:06.613Z,40516.38
2018-12-09T06:59:11.482Z,40497.06
2018-12-09T07:01:16.634Z,40506.72
2018-12-09T07:03:22.533Z,40484.50
2018-12-09T07:05:27.507Z,40501.89
2018-12-09T07:07:32.214Z,40498.03
2018-12-09T07:09:37.009Z,40505.76
2018-12-09T07:11:41.888Z,40484.50
2018-12-09T07:13:46.792Z,40493.20
2018-12-09T07:15:51.765Z,40495.13
2018-12-09T07:17:57.002Z,40454.55
2018-12-09T07:20:02.880Z,40484.50
2018-12-09T07:22:07.752Z,40497.06
2018-12-09T07:24:13.640Z,40503.82
2018-12-09T07:26:18.560Z,40439.10
2018-12-09T07:28:23.997Z,40483.54
2018-12-09T07:30:29.376Z,40470.98
2018-12-09T07:32:34.180Z,40448.76
2018-12-09T07:34:40.953Z,40519.29
2018-12-09T07:36:48.703Z,40464.21
2018-12-09T07:38:53.565Z,40480.64
2018-12-09T07:41:02.430Z,40489.33
2018-12-09T07:43:07.373Z,40482.57
2018-12-09T07:45:12.517Z,40387.89
2018-12-09T07:47:17.326Z,40492.23
2018-12-09T07:49:22.085Z,40477.74
2018-12-09T07:51:26.905Z,40428.47
2018-12-09T07:53:31.976Z,40459.39
2018-12-09T07:55:36.812Z,40436.20
2018-12-09T07:57:43.620Z,40459.39
2018-12-09T07:59:50.673Z,40458.42
2018-12-09T08:01:56.012Z,40461.32
2018-12-09T08:04:04.471Z,40473.87
2018-12-09T08:06:14.353Z,40441.03
2018-12-09T08:08:20.071Z,40456.49
2018-12-09T08:10:25.502Z,40464.21
2018-12-09T08:12:30.333Z,40439.10
2018-12-09T08:14:35.085Z,40440.06
2018-12-09T08:16:39.824Z,40473.87
2018-12-09T08:18:44.876Z,40458.42
2018-12-09T08:20:49.626Z,40432.34
2018-12-09T08:22:54.968Z,40476.77
2018-12-09T08:25:00.038Z,40479.67
2018-12-09T08:27:08.415Z,40438.13
2018-12-09T08:29:13.288Z,40452.62
2018-12-09T08:31:19.211Z,40469.05
2018-12-09T08:33:24.268Z,40451.66
2018-12-09T08:35:29.079Z,40436.20
2018-12-09T08:37:34.053Z,40453.59
2018-12-09T08:39:43.348Z,40440.06
2018-12-09T08:41:55.505Z,40456.49
2018-12-09T08:44:00.446Z,40457.45
2018-12-09T08:46:05.526Z,40448.76
2018-12-09T08:48:12.760Z,40459.39
2018-12-09T08:50:18.091Z,40444.89
2018-12-09T08:52:28.223Z,40474.84
2018-12-09T08:54:34.909Z,40439.10
2018-12-09T08:56:40.500Z,40542.47
2018-12-09T08:58:45.726Z,40458.42
2018-12-09T09:00:51.230Z,40448.76
2018-12-09T09:05:12.775Z,40451.66
2018-12-09T09:09:34.286Z,40436.20
2018-12-09T09:11:39.238Z,40461.32
2018-12-09T09:13:44.135Z,40437.16
2018-12-09T09:15:49.024Z,40434.27
2018-12-09T09:17:53.915Z,40471.95
2018-12-09T09:19:59.468Z,40435.23
2018-12-09T09:22:04.624Z,40412.05
2018-12-09T09:24:09.932Z,40442.96
2018-12-09T09:26:16.567Z,40415.91
2018-12-09T09:28:22.673Z,40453.59
2018-12-09T09:30:28.516Z,40440.06
2018-12-09T09:32:33.392Z,40471.95
2018-12-09T09:34:38.251Z,40447.79
2018-12-09T09:36:43.106Z,40442.00
2018-12-09T09:38:48.035Z,40454.55
2018-12-09T09:40:54.429Z,40444.89
2018-12-09T09:42:59.271Z,40439.10
2018-12-09T09:45:04.365Z,40415.91
2018-12-09T09:47:09.435Z,40438.13
2018-12-09T09:49:14.466Z,40424.61
2018-12-09T09:51:20.668Z,40465.18
2018-12-09T09:53:26.154Z,40410.11
2018-12-09T09:55:32.528Z,40416.88
2018-12-09T09:57:37.402Z,40442.96
2018-12-09T09:59:42.236Z,40427.50
2018-12-09T10:01:47.895Z,40450.69
2018-12-09T10:03:52.765Z,40420.74
2018-12-09T10:05:57.627Z,40438.13
2018-12-09T10:08:05.661Z,40399.49
2018-12-09T10:10:10.687Z,40453.59
2018-12-09T10:12:18.060Z,40437.16
2018-12-09T10:14:23.490Z,40434.27
2018-12-09T10:16:28.481Z,40455.52
2018-12-09T10:18:33.646Z,40439.10
2018-12-09T10:20:40.563Z,40441.03
2018-12-09T10:22:48.236Z,40454.55
2018-12-09T10:24:53.199Z,40468.08
2018-12-09T10:27:01.485Z,40439.10
2018-12-09T10:29:09.248Z,40444.89
2018-12-09T10:31:17.446Z,40470.98
2018-12-09T10:33:25.711Z,40440.06
2018-12-09T10:35:33.080Z,40437.16
2018-12-09T10:37:39.996Z,40426.54
2018-12-09T10:39:47.125Z,40450.69
2018-12-09T10:41:53.976Z,40425.57
2018-12-09T10:44:00.470Z,40404.32
2018-12-09T10:46:06.936Z,40413.01
2018-12-09T10:48:14.368Z,40441.03
2018-12-09T10:50:21.024Z,40420.74
2018-12-09T10:52:28.814Z,40440.06
2018-12-09T10:54:33.660Z,40420.74
2018-12-09T10:56:40.902Z,40447.79
2018-12-09T10:58:48.969Z,40437.16
2018-12-09T11:01:27.173Z,40459.39
2018-12-09T11:03:34.503Z,40423.64
2018-12-09T11:05:42.516Z,40431.37
2018-12-09T11:07:51.536Z,40419.78
2018-12-09T11:09:58.798Z,40423.64
2018-12-09T11:12:06.518Z,40475.81
2018-12-09T11:14:14.140Z,40469.05
2018-12-09T11:16:22.214Z,40473.87
2018-12-09T11:18:31.234Z,40445.86
2018-12-09T11:20:37.849Z,40432.34
2018-12-09T11:22:44.817Z,40441.03
2018-12-09T11:24:50.341Z,40456.49
2018-12-09T11:26:56.663Z,40468.08
2018-12-09T11:31:27.792Z,40464.21
2018-12-09T11:33:32.745Z,40463.25
2018-12-09T11:35:38.020Z,40475.81
2018-12-09T11:37:43.029Z,40479.67
2018-12-09T11:39:48.077Z,40459.39
2018-12-09T11:41:53.161Z,40473.87
2018-12-09T11:43:58.183Z,40470.01
2018-12-09T11:46:04.841Z,40456.49
2018-12-09T11:48:10.875Z,40421.71
2018-12-09T11:50:15.896Z,40406.25
2018-12-09T11:52:20.797Z,40171.50
2018-12-09T11:54:26.216Z,40229.46
2018-12-09T11:56:31.216Z,40158.95
2018-12-09T11:58:37.351Z,40171.50
2018-12-09T12:00:43.380Z,40176.33
2018-12-09T12:02:48.366Z,40176.33
2018-12-09T12:04:54.278Z,40168.61
2018-12-09T12:06:59.282Z,40147.35
2018-12-09T12:09:05.471Z,40140.59
2018-12-09T12:11:10.446Z,40191.79
2018-12-09T12:13:16.407Z,40162.81
2018-12-09T12:15:22.838Z,40210.14
2018-12-09T12:17:28.452Z,40185.99
2018-12-09T12:19:36.354Z,40177.30
2018-12-09T12:21:48.197Z,40215.94
2018-12-09T12:23:53.169Z,40187.93
2018-12-09T12:26:00.345Z,40201.45
2018-12-09T12:28:07.297Z,40207.25
2018-12-09T12:30:12.285Z,40229.46
2018-12-09T12:32:17.249Z,40227.53
2018-12-09T12:34:22.782Z,40270.04
2018-12-09T12:36:27.811Z,40150.25
2018-12-09T12:38:33.939Z,40268.11
2018-12-09T12:40:38.959Z,40214.01
2018-12-09T12:42:44.996Z,40239.12
2018-12-09T13:00:21.931Z,40257.48
2018-12-09T13:02:27.389Z,40266.17
2018-12-09T13:04:32.672Z,40275.83
2018-12-09T13:06:38.036Z,40283.56
2018-12-09T13:08:44.786Z,40267.14
2018-12-09T13:10:49.788Z,40269.07
2018-12-09T13:12:56.157Z,40253.61
2018-12-09T13:15:02.586Z,40299.98
2018-12-09T13:17:07.657Z,40220.77
2018-12-09T13:19:13.275Z,40273.90
2018-12-09T13:21:19.933Z,40275.83
2018-12-09T13:23:25.930Z,40291.29
2018-12-09T13:25:32.328Z,40296.12
2018-12-09T13:27:39.605Z,40282.60
2018-12-09T13:29:45.116Z,40307.71
2018-12-09T13:31:51.662Z,40285.49
2018-12-09T13:33:59.478Z,40336.70
2018-12-09T13:36:05.265Z,40297.09
2018-12-09T13:38:10.708Z,40291.29
2018-12-09T13:40:20.476Z,40320.27
2018-12-09T13:42:26.127Z,40315.44
2018-12-09T13:44:42.458Z,40387.89
2018-12-09T13:46:52.056Z,40288.39
2018-12-09T13:48:59.727Z,40291.29
2018-12-09T13:51:07.131Z,40293.22
2018-12-09T13:53:14.645Z,40283.56
2018-12-09T13:55:20.232Z,40290.32
2018-12-09T13:57:25.863Z,40239.12
2018-12-09T13:59:31.796Z,40278.73
2018-12-09T14:01:37.023Z,40294.19
2018-12-09T14:03:42.450Z,40304.81
2018-12-09T14:05:48.210Z,40270.04
2018-12-09T14:07:53.749Z,40258.45
2018-12-09T14:09:58.728Z,40318.34
2018-12-09T14:12:03.940Z,40269.07
2018-12-09T14:14:09.101Z,40298.05
2018-12-09T14:16:14.158Z,40297.09
2018-12-09T14:18:19.439Z,40270.04
2018-12-09T14:20:24.394Z,40290.32
2018-12-09T14:22:31.241Z,40278.73
2018-12-09T14:24:36.759Z,40252.65
2018-12-09T14:26:41.619Z,40283.56
2018-12-09T14:28:46.633Z,40266.17
2018-12-09T14:30:52.584Z,40275.83
2018-12-09T14:32:57.648Z,40282.60
2018-12-09T14:35:02.544Z,40314.48
2018-12-09T14:37:07.704Z,40267.14
2018-12-09T14:39:13.424Z,40296.12
2018-12-09T14:41:18.681Z,40277.77
2018-12-09T14:43:23.645Z,40269.07
2018-12-09T14:45:28.645Z,40295.15
2018-12-09T15:05:41.793Z,40305.78
2018-12-09T15:07:46.710Z,40304.81
2018-12-09T15:09:52.514Z,40299.98
2018-12-09T15:11:57.466Z,40271.00
2018-12-09T15:14:03.257Z,40258.45
2018-12-09T15:16:08.109Z,40266.17
2018-12-09T15:18:13.077Z,40249.75
2018-12-09T15:20:18.820Z,40272.94
2018-12-09T15:22:23.871Z,40251.68
2018-12-09T15:24:30.480Z,40242.99
2018-12-09T15:26:35.718Z,40258.45
2018-12-09T15:28:40.885Z,40244.92
2018-12-09T15:32:47.378Z,40259.41
2018-12-09T15:34:54.278Z,40254.58
2018-12-09T15:36:59.149Z,40227.53
2018-12-09T15:39:04.481Z,40219.80
2018-12-09T15:41:09.332Z,40209.18
2018-12-09T15:43:15.116Z,40239.12
2018-12-09T15:45:20.878Z,40217.87
2018-12-09T15:47:25.944Z,40225.60
2018-12-09T15:49:31.676Z,40236.23
2018-12-09T15:51:36.521Z,40221.73
2018-12-09T15:53:41.461Z,40226.57
2018-12-09T15:55:47.206Z,40224.63
2018-12-09T15:57:53.466Z,40184.06
2018-12-09T15:59:59.109Z,40212.07
2018-12-09T16:20:10.730Z,40122.24
2018-12-09T16:22:15.656Z,40100.02
2018-12-09T16:24:21.555Z,40134.80
2018-12-09T16:26:26.777Z,40137.69
2018-12-09T16:28:31.753Z,40130.93
2018-12-09T16:30:37.279Z,40106.78
2018-12-09T16:32:42.309Z,40118.38
2018-12-09T16:34:47.909Z,40125.14
2018-12-09T16:36:56.187Z,40124.17
2018-12-09T16:39:01.914Z,40131.89
2018-12-09T16:41:07.101Z,40119.34
2018-12-09T16:43:11.996Z,40104.85
2018-12-09T16:45:17.274Z,40122.24
2018-12-09T16:47:22.221Z,40106.78
2018-12-09T16:49:29.506Z,40118.38
2018-12-09T16:51:34.713Z,40144.45
2018-12-09T16:53:40.170Z,40140.59
2018-12-09T16:55:45.574Z,40157.01
2018-12-09T16:57:50.581Z,40159.91
2018-12-09T16:59:56.010Z,40166.67
2018-12-09T17:02:00.743Z,40137.69
2018-12-09T17:04:05.589Z,40133.83
2018-12-09T17:06:10.497Z,40161.84
2018-12-09T17:08:15.461Z,40116.44
2018-12-09T17:10:21.485Z,40121.27
2018-12-09T17:12:27.795Z,40147.35
2018-12-09T17:14:34.769Z,40101.95
2018-12-09T17:16:39.723Z,40139.62
2018-12-09T17:18:46.897Z,40124.17
2018-12-09T17:20:54.105Z,40157.98
2018-12-09T17:22:59.336Z,40136.73
2018-12-09T17:25:04.300Z,40130.93
2018-12-09T17:27:12.271Z,40142.52
2018-12-09T17:29:17.775Z,40138.66
2018-12-09T17:31:22.741Z,40126.10
2018-12-09T17:33:28.664Z,40128.03
2018-12-09T17:35:35.060Z,40108.71
2018-12-09T17:37:39.960Z,40118.38
2018-12-09T17:39:45.550Z,40098.09
2018-12-09T17:41:50.377Z,40074.90
2018-12-09T17:43:55.700Z,40090.36
2018-12-09T17:46:00.501Z,40097.12
2018-12-09T17:48:05.898Z,40010.18
2018-12-09T17:50:12.824Z,40113.54
2018-12-09T17:52:18.194Z,40077.80
2018-12-09T17:54:23.123Z,40105.82
2018-12-09T17:56:27.886Z,40092.29
2018-12-09T17:58:33.962Z,40083.60
2018-12-09T18:00:39.647Z,40106.78
2018-12-09T18:02:44.570Z,40078.77
2018-12-09T18:04:51.516Z,40049.79
2018-12-09T18:06:59.897Z,40073.94
2018-12-09T18:09:08.499Z,40072.01
2018-12-09T18:11:14.504Z,40062.35
2018-12-09T18:13:20.402Z,40064.28
2018-12-09T18:15:26.683Z,40065.24
2018-12-09T18:17:32.032Z,40073.94
2018-12-09T18:19:36.928Z,40048.82
2018-12-09T18:21:41.953Z,40081.66
2018-12-09T18:23:46.810Z,40054.62
2018-12-09T18:25:51.611Z,40069.11
2018-12-09T18:27:56.527Z,40059.45
2018-12-09T18:30:01.514Z,40077.80
2018-12-09T18:32:06.599Z,40080.70
2018-12-09T18:34:11.609Z,40065.24
2018-12-09T18:36:16.649Z,40040.13
2018-12-09T18:38:22.231Z,40062.35
2018-12-09T18:40:28.204Z,40060.41
2018-12-09T18:42:39.708Z,40062.35
2018-12-09T18:44:44.480Z,40035.30
2018-12-09T18:46:49.592Z,40007.29
2018-12-09T18:48:55.999Z,40027.57
2018-12-09T18:51:01.019Z,40014.05
2018-12-09T18:53:06.151Z,40026.61
2018-12-09T18:55:11.131Z,39987.97
2018-12-09T18:57:17.598Z,39999.56
2018-12-09T18:59:22.532Z,40003.42
2018-12-09T19:01:27.475Z,40009.22
2018-12-09T19:03:32.352Z,39985.07
2018-12-09T19:05:37.330Z,39988.93
2018-12-09T19:07:42.480Z,39984.11
2018-12-09T19:09:48.020Z,40013.08
2018-12-09T19:11:55.769Z,40014.05
2018-12-09T19:14:01.827Z,40045.93
2018-12-09T19:16:06.762Z,40013.08
2018-12-09T19:18:13.818Z,40002.46
2018-12-09T19:20:18.652Z,39981.21
2018-12-09T19:22:23.913Z,39957.06
2018-12-09T19:24:28.934Z,39998.59
2018-12-09T19:26:33.949Z,39985.07
2018-12-09T19:28:39.118Z,40003.42
2018-12-09T19:30:48.310Z,39987.00
2018-12-09T19:32:53.523Z,39985.07
2018-12-09T19:35:01.598Z,40001.49
2018-12-09T19:37:07.201Z,39980.24
2018-12-09T19:39:12.363Z,39978.31
2018-12-09T19:41:17.452Z,39966.71
2018-12-09T19:43:28.674Z,39992.80
2018-12-09T19:45:33.876Z,39993.76
2018-12-09T19:47:42.645Z,39987.00
2018-12-09T19:49:51.019Z,39988.93
2018-12-09T19:51:56.535Z,39960.92
2018-12-09T19:54:01.935Z,39948.36
2018-12-09T19:56:08.065Z,39964.79
2018-12-09T19:58:13.955Z,39976.37
2018-12-09T20:00:19.650Z,39932.91
2018-12-09T20:02:25.155Z,39963.82
2018-12-09T20:04:31.477Z,39937.74
2018-12-09T20:06:39.437Z,39955.12
2018-12-09T20:08:46.874Z,39975.41
2018-12-09T20:10:51.973Z,39928.08
2018-12-09T20:12:57.295Z,39952.23
2018-12-09T20:15:04.040Z,39943.53
2018-12-09T20:17:10.960Z,39934.84
2018-12-09T20:19:16.357Z,39898.14
2018-12-09T20:21:22.112Z,39943.53
2018-12-09T20:23:27.423Z,39932.91
2018-12-09T20:25:33.758Z,39909.73
2018-12-09T20:27:39.247Z,39948.36
2018-12-09T20:29:45.704Z,39949.33
2018-12-09T20:31:50.707Z,39915.52
2018-12-09T20:33:56.675Z,39932.91
2018-12-09T20:36:04.026Z,39947.40
2018-12-09T20:38:09.109Z,39946.43
2018-12-09T20:40:16.993Z,39912.62
2018-12-09T20:42:22.168Z,39949.33
2018-12-09T20:44:27.964Z,39929.04
2018-12-09T20:46:33.314Z,39928.08
2018-12-09T20:48:38.789Z,39943.53
2018-12-09T20:50:45.936Z,39911.66
2018-12-09T20:53:00.969Z,39921.32
2018-12-09T20:55:07.742Z,39904.90
2018-12-09T20:57:16.814Z,39919.39
2018-12-09T20:59:24.294Z,39913.59
2018-12-09T21:01:30.077Z,39903.93
2018-12-09T21:03:35.755Z,39935.80
2018-12-09T21:05:41.139Z,39926.15
2018-12-09T21:07:47.385Z,39938.70
2018-12-09T21:09:53.380Z,39935.80
2018-12-09T21:11:58.826Z,39908.76
2018-12-09T21:14:04.578Z,39922.28
2018-12-09T21:16:11.474Z,39951.26
2018-12-09T21:18:16.802Z,39949.33
2018-12-09T21:20:22.274Z,39924.21
2018-12-09T21:22:29.042Z,39931.94
2018-12-09T21:24:34.530Z,39913.59
2018-12-09T21:26:40.016Z,39951.26
2018-12-09T21:28:45.033Z,39932.91
2018-12-09T21:30:50.191Z,39933.87
2018-12-09T21:35:10.292Z,39966.71
2018-12-09T21:37:15.501Z,39908.76
2018-12-09T21:39:21.122Z,39950.30
2018-12-09T21:41:26.482Z,39940.64
2018-12-09T21:43:31.593Z,39949.33
2018-12-09T21:45:37.139Z,39893.30
2018-12-09T21:47:43.167Z,39917.45
2018-12-09T21:49:48.136Z,39894.27
2018-12-09T21:51:54.295Z,39930.01
2018-12-09T21:53:59.492Z,39900.07
2018-12-09T21:56:04.988Z,39892.34
2018-12-09T21:58:13.602Z,39896.20
2018-12-09T22:00:21.061Z,39902.00
2018-12-09T22:02:27.159Z,39866.26
2018-12-09T22:04:33.173Z,39860.46
2018-12-09T22:06:39.754Z,39886.54
2018-12-09T22:08:46.929Z,39913.59
2018-12-09T22:10:59.456Z,39866.26
2018-12-09T22:13:04.803Z,39863.36
2018-12-09T22:15:12.051Z,39847.91
2018-12-09T22:17:17.051Z,39846.94
2018-12-09T22:19:22.654Z,39867.23
2018-12-09T22:21:33.189Z,39896.20
2018-12-09T22:23:38.685Z,39860.46
2018-12-09T22:25:45.776Z,39848.87
2018-12-09T22:27:50.688Z,39891.37
2018-12-09T22:29:56.314Z,39862.39
2018-12-09T22:32:01.113Z,39890.41
2018-12-09T22:34:07.118Z,39867.23
2018-12-09T22:36:11.945Z,39881.71
2018-12-09T22:38:17.509Z,39879.78
2018-12-09T22:40:22.314Z,39858.53
2018-12-09T22:42:27.584Z,39867.23
2018-12-09T22:44:32.341Z,39864.33
2018-12-09T22:46:37.049Z,39847.91
2018-12-09T22:48:43.592Z,39841.14
2018-12-09T22:50:48.342Z,39889.44
2018-12-09T22:52:53.078Z,39871.09
2018-12-09T22:54:58.228Z,39847.91
2018-12-09T22:57:03.018Z,39882.68
2018-12-09T22:59:08.684Z,39860.46
2018-12-09T23:01:20.106Z,39858.53
2018-12-09T23:03:26.027Z,39830.52
2018-12-09T23:05:31.719Z,39829.55
2018-12-09T23:07:41.685Z,39827.62
2018-12-09T23:09:46.569Z,39845.01
2018-12-09T23:11:52.946Z,39843.08
2018-12-09T23:13:58.331Z,39843.08
2018-12-09T23:16:03.175Z,39852.74
2018-12-09T23:18:09.215Z,39828.59
2018-12-09T23:20:14.535Z,39836.32
2018-12-09T23:22:19.336Z,39844.04
2018-12-09T23:24:24.114Z,39831.49
2018-12-09T23:26:28.903Z,39833.42
2018-12-09T23:28:33.748Z,39809.27
2018-12-09T23:30:38.782Z,39819.89
2018-12-09T23:32:43.552Z,39842.11
2018-12-09T23:34:48.501Z,39845.01
2018-12-09T23:36:53.312Z,39848.87
2018-12-09T23:38:57.980Z,39791.88
2018-12-09T23:41:02.741Z,39845.98
2018-12-09T23:43:07.553Z,39831.49
2018-12-09T23:45:12.533Z,39850.80
2018-12-09T23:47:17.404Z,39795.75
2018-12-09T23:49:22.322Z,39809.27
2018-12-09T23:51:27.070Z,39803.48
2018-12-09T23:53:32.496Z,39802.51
2018-12-09T23:55:43.864Z,39800.58
2018-12-09T23:57:48.569Z,39821.83
2018-12-09T23:59:53.392Z,39797.68
